Alexandria, Nebraska
Current Conditions -  °F | °C
As of 8:15 PM on Tuesday 21 Oct 2014 (Local Time) from KHJH Reporting Station
Clear Clear  
Wind Chill: 60°   Ceiling: Unl
Heat Index: 60°   Visibility: 10mi
Dew Point: 46°   Wind: 0mph
Humidity: 61%   Direction: NA
Pressure: 30"   Gusts: NA
Location:  40.25°N, 97.39°W
Report Text: KHJH 220115Z AUTO 00000KT 10SM CLR 16/08 A3000 RMK AO2 T01560080
Loading
Personal Weather Stations






























Interactive Weather Map
Tropical Storm Tracking
New forecast layout! Learn more

10-Day Weather Forecast

Advertisements
Track Severe Weather on mobile